sensor_id;sensor_type;location;lat;lon;timestamp;pressure;altitude;pressure_sealevel;temperature;humidity
2673;BME280;1346;51.558;6.996;2022-08-19T00:01:27;100780.75;;;19.77;100.00
2673;BME280;1346;51.558;6.996;2022-08-19T00:03:56;100778.22;;;19.75;100.00
2673;BME280;1346;51.558;6.996;2022-08-19T00:06:23;100779.91;;;19.70;100.00
2673;BME280;1346;51.558;6.996;2022-08-19T00:08:50;100784.94;;;19.66;100.00
2673;BME280;1346;51.558;6.996;2022-08-19T00:11:18;100777.41;;;19.62;100.00
2673;BME280;1346;51.558;6.996;2022-08-19T00:13:46;100782.63;;;19.57;100.00
2673;BME280;1346;51.558;6.996;2022-08-19T00:16:14;100778.69;;;19.53;100.00
2673;BME280;1346;51.558;6.996;2022-08-19T00:18:41;100783.69;;;19.49;100.00
2673;BME280;1346;51.558;6.996;2022-08-19T00:21:07;100794.97;;;19.46;100.00
2673;BME280;1346;51.558;6.996;2022-08-19T00:23:35;100782.00;;;19.42;100.00
2673;BME280;1346;51.558;6.996;2022-08-19T00:26:03;100782.41;;;19.39;100.00
2673;BME280;1346;51.558;6.996;2022-08-19T00:28:31;100784.72;;;19.35;100.00
2673;BME280;1346;51.558;6.996;2022-08-19T00:30:58;100786.78;;;19.33;100.00
2673;BME280;1346;51.558;6.996;2022-08-19T00:33:26;100782.81;;;19.29;100.00
2673;BME280;1346;51.558;6.996;2022-08-19T00:35:54;100777.97;;;19.24;100.00
2673;BME280;1346;51.558;6.996;2022-08-19T00:38:21;100776.75;;;19.20;100.00
2673;BME280;1346;51.558;6.996;2022-08-19T00:40:48;100773.38;;;19.18;100.00
2673;BME280;1346;51.558;6.996;2022-08-19T00:43:20;100770.88;;;19.17;100.00
2673;BME280;1346;51.558;6.996;2022-08-19T00:45:48;100777.56;;;19.14;100.00
2673;BME280;1346;51.558;6.996;2022-08-19T00:48:18;100778.81;;;19.12;100.00
2673;BME280;1346;51.558;6.996;2022-08-19T00:50:46;100775.47;;;19.10;100.00
2673;BME280;1346;51.558;6.996;2022-08-19T00:53:17;100774.81;;;19.08;100.00
2673;BME280;1346;51.558;6.996;2022-08-19T00:55:47;100777.97;;;19.05;100.00
2673;BME280;1346;51.558;6.996;2022-08-19T00:58:18;100772.94;;;19.02;100.00
2673;BME280;1346;51.558;6.996;2022-08-19T01:00:47;100770.63;;;18.99;100.00
2673;BME280;1346;51.558;6.996;2022-08-19T01:03:18;100774.41;;;18.98;100.00
2673;BME280;1346;51.558;6.996;2022-08-19T01:05:47;100769.38;;;18.95;100.00
2673;BME280;1346;51.558;6.996;2022-08-19T01:08:17;100766.25;;;18.91;100.00
2673;BME280;1346;51.558;6.996;2022-08-19T01:10:50;100762.88;;;18.89;100.00
2673;BME280;1346;51.558;6.996;2022-08-19T01:13:22;100759.31;;;18.89;100.00
2673;BME280;1346;51.558;6.996;2022-08-19T01:15:56;100768.53;;;18.88;100.00
2673;BME280;1346;51.558;6.996;2022-08-19T01:18:25;100767.03;;;18.85;100.00
2673;BME280;1346;51.558;6.996;2022-08-19T01:20:56;100765.59;;;18.83;100.00
2673;BME280;1346;51.558;6.996;2022-08-19T01:23:26;100767.66;;;18.81;100.00
2673;BME280;1346;51.558;6.996;2022-08-19T01:26:10;100772.47;;;18.79;100.00
2673;BME280;1346;51.558;6.996;2022-08-19T01:28:38;100781.00;;;18.76;100.00
2673;BME280;1346;51.558;6.996;2022-08-19T01:31:07;100774.94;;;18.74;100.00
2673;BME280;1346;51.558;6.996;2022-08-19T01:33:37;100770.56;;;18.73;100.00
2673;BME280;1346;51.558;6.996;2022-08-19T01:36:07;100772.44;;;18.72;100.00
2673;BME280;1346;51.558;6.996;2022-08-19T01:38:39;100765.56;;;18.70;100.00
2673;BME280;1346;51.558;6.996;2022-08-19T01:41:07;100766.78;;;18.67;100.00
2673;BME280;1346;51.558;6.996;2022-08-19T01:43:34;100765.34;;;18.65;100.00
2673;BME280;1346;51.558;6.996;2022-08-19T01:46:01;100767.41;;;18.63;100.00
2673;BME280;1346;51.558;6.996;2022-08-19T01:48:34;100765.06;;;18.60;100.00
2673;BME280;1346;51.558;6.996;2022-08-19T01:51:01;100772.41;;;18.59;100.00
2673;BME280;1346;51.558;6.996;2022-08-19T01:53:29;100767.56;;;18.55;100.00
2673;BME280;1346;51.558;6.996;2022-08-19T01:55:58;100765.91;;;18.54;100.00
2673;BME280;1346;51.558;6.996;2022-08-19T01:58:28;100770.69;;;18.52;100.00
2673;BME280;1346;51.558;6.996;2022-08-19T02:00:57;100777.16;;;18.51;100.00
2673;BME280;1346;51.558;6.996;2022-08-19T02:03:24;100771.09;;;18.49;100.00
2673;BME280;1346;51.558;6.996;2022-08-19T02:05:55;100772.16;;;18.48;100.00
2673;BME280;1346;51.558;6.996;2022-08-19T02:08:23;100775.03;;;18.46;100.00
2673;BME280;1346;51.558;6.996;2022-08-19T02:10:50;100776.94;;;18.46;100.00
2673;BME280;1346;51.558;6.996;2022-08-19T02:13:19;100768.16;;;18.44;100.00
2673;BME280;1346;51.558;6.996;2022-08-19T02:15:46;100766.50;;;18.43;100.00
2673;BME280;1346;51.558;6.996;2022-08-19T02:18:14;100765.88;;;18.41;100.00
2673;BME280;1346;51.558;6.996;2022-08-19T02:20:42;100757.91;;;18.39;100.00
2673;BME280;1346;51.558;6.996;2022-08-19T02:23:11;100759.13;;;18.37;100.00
2673;BME280;1346;51.558;6.996;2022-08-19T02:25:39;100768.31;;;18.36;100.00
2673;BME280;1346;51.558;6.996;2022-08-19T02:28:08;100766.63;;;18.35;100.00
2673;BME280;1346;51.558;6.996;2022-08-19T02:30:37;100770.38;;;18.34;100.00
2673;BME280;1346;51.558;6.996;2022-08-19T02:33:04;100766.81;;;18.33;100.00
2673;BME280;1346;51.558;6.996;2022-08-19T02:35:31;100777.88;;;18.32;100.00
2673;BME280;1346;51.558;6.996;2022-08-19T02:37:58;100782.47;;;18.31;100.00
2673;BME280;1346;51.558;6.996;2022-08-19T02:40:49;100788.94;;;18.30;100.00
2673;BME280;1346;51.558;6.996;2022-08-19T02:43:18;100781.00;;;18.29;100.00
2673;BME280;1346;51.558;6.996;2022-08-19T02:45:48;100775.56;;;18.29;100.00
2673;BME280;1346;51.558;6.996;2022-08-19T02:48:17;100773.72;;;18.29;100.00
2673;BME280;1346;51.558;6.996;2022-08-19T02:50:45;100771.00;;;18.29;100.00
2673;BME280;1346;51.558;6.996;2022-08-19T02:53:13;100772.44;;;18.32;100.00
2673;BME280;1346;51.558;6.996;2022-08-19T02:55:44;100776.81;;;18.33;100.00
2673;BME280;1346;51.558;6.996;2022-08-19T02:58:11;100769.53;;;18.33;100.00
2673;BME280;1346;51.558;6.996;2022-08-19T03:00:43;100767.22;;;18.30;100.00
2673;BME280;1346;51.558;6.996;2022-08-19T03:03:12;100775.78;;;18.27;100.00
2673;BME280;1346;51.558;6.996;2022-08-19T03:05:40;100775.53;;;18.22;100.00
2673;BME280;1346;51.558;6.996;2022-08-19T03:08:07;100766.97;;;18.19;100.00
2673;BME280;1346;51.558;6.996;2022-08-19T03:10:42;100772.81;;;18.16;100.00
2673;BME280;1346;51.558;6.996;2022-08-19T03:13:12;100770.47;;;18.13;100.00
2673;BME280;1346;51.558;6.996;2022-08-19T03:15:42;100776.94;;;18.12;100.00
2673;BME280;1346;51.558;6.996;2022-08-19T03:18:11;100770.47;;;18.13;100.00
2673;BME280;1346;51.558;6.996;2022-08-19T03:20:43;100770.25;;;18.14;100.00
2673;BME280;1346;51.558;6.996;2022-08-19T03:23:11;100761.50;;;18.12;100.00
2673;BME280;1346;51.558;6.996;2022-08-19T03:25:41;100765.25;;;18.11;100.00
2673;BME280;1346;51.558;6.996;2022-08-19T03:28:09;100767.31;;;18.09;100.00
2673;BME280;1346;51.558;6.996;2022-08-19T03:30:37;100769.41;;;18.07;100.00
2673;BME280;1346;51.558;6.996;2022-08-19T03:33:05;100765.41;;;18.03;100.00
2673;BME280;1346;51.558;6.996;2022-08-19T03:35:33;100769.34;;;18.00;100.00
2673;BME280;1346;51.558;6.996;2022-08-19T03:38:02;100771.44;;;17.98;100.00
2673;BME280;1346;51.558;6.996;2022-08-19T03:40:29;100769.13;;;17.95;100.00
2673;BME280;1346;51.558;6.996;2022-08-19T03:42:56;100768.50;;;17.93;100.00
2673;BME280;1346;51.558;6.996;2022-08-19T03:45:23;100766.81;;;17.92;100.00
2673;BME280;1346;51.558;6.996;2022-08-19T03:47:50;100767.00;;;17.91;100.00
2673;BME280;1346;51.558;6.996;2022-08-19T03:50:18;100769.91;;;17.89;100.00
2673;BME280;1346;51.558;6.996;2022-08-19T03:52:49;100772.63;;;17.89;100.00
2673;BME280;1346;51.558;6.996;2022-08-19T03:55:17;100772.63;;;17.89;100.00
2673;BME280;1346;51.558;6.996;2022-08-19T03:57:44;100768.06;;;17.90;100.00
2673;BME280;1346;51.558;6.996;2022-08-19T04:00:14;100773.28;;;17.91;100.00
2673;BME280;1346;51.558;6.996;2022-08-19T04:02:42;100779.91;;;17.89;100.00
2673;BME280;1346;51.558;6.996;2022-08-19T04:05:09;100781.16;;;17.86;100.00
2673;BME280;1346;51.558;6.996;2022-08-19T04:07:36;100778.81;;;17.83;100.00
2673;BME280;1346;51.558;6.996;2022-08-19T04:10:05;100777.56;;;17.79;100.00
2673;BME280;1346;51.558;6.996;2022-08-19T04:12:32;100778.97;;;17.75;100.00
2673;BME280;1346;51.558;6.996;2022-08-19T04:14:59;100772.09;;;17.73;100.00
2673;BME280;1346;51.558;6.996;2022-08-19T04:17:26;100784.81;;;17.72;100.00
2673;BME280;1346;51.558;6.996;2022-08-19T04:19:53;100765.00;;;17.72;100.00
2673;BME280;1346;51.558;6.996;2022-08-19T04:22:20;100766.69;;;17.73;100.00
2673;BME280;1346;51.558;6.996;2022-08-19T04:24:46;100771.91;;;17.74;100.00
2673;BME280;1346;51.558;6.996;2022-08-19T04:27:15;100768.34;;;17.74;100.00
2673;BME280;1346;51.558;6.996;2022-08-19T04:29:42;100785.44;;;17.74;100.00
2673;BME280;1346;51.558;6.996;2022-08-19T04:32:09;100778.34;;;17.73;100.00
2673;BME280;1346;51.558;6.996;2022-08-19T04:34:37;100776.69;;;17.72;100.00
2673;BME280;1346;51.558;6.996;2022-08-19T04:37:06;100779.78;;;17.69;100.00
2673;BME280;1346;51.558;6.996;2022-08-19T04:39:37;100775.59;;;17.67;100.00
2673;BME280;1346;51.558;6.996;2022-08-19T04:42:23;100782.25;;;17.64;100.00
2673;BME280;1346;51.558;6.996;2022-08-19T04:45:08;100786.81;;;17.64;100.00
2673;BME280;1346;51.558;6.996;2022-08-19T04:47:36;100793.28;;;17.63;100.00
2673;BME280;1346;51.558;6.996;2022-08-19T04:50:05;100793.47;;;17.61;100.00
2673;BME280;1346;51.558;6.996;2022-08-19T04:52:32;100789.94;;;17.61;100.00
2673;BME280;1346;51.558;6.996;2022-08-19T04:54:59;100789.09;;;17.60;100.00
2673;BME280;1346;51.558;6.996;2022-08-19T04:57:28;100792.44;;;17.62;100.00
2673;BME280;1346;51.558;6.996;2022-08-19T04:59:56;100788.69;;;17.63;100.00
2673;BME280;1346;51.558;6.996;2022-08-19T05:02:23;100792.03;;;17.65;100.00
2673;BME280;1346;51.558;6.996;2022-08-19T05:04:51;100802.47;;;17.68;100.00
2673;BME280;1346;51.558;6.996;2022-08-19T05:07:22;100805.00;;;17.70;100.00
2673;BME280;1346;51.558;6.996;2022-08-19T05:09:49;100809.19;;;17.72;100.00
2673;BME280;1346;51.558;6.996;2022-08-19T05:12:17;100812.56;;;17.74;100.00
2673;BME280;1346;51.558;6.996;2022-08-19T05:14:46;100813.00;;;17.78;100.00
2673;BME280;1346;51.558;6.996;2022-08-19T05:17:13;100815.94;;;17.83;100.00
2673;BME280;1346;51.558;6.996;2022-08-19T05:19:40;100813.47;;;17.88;100.00
2673;BME280;1346;51.558;6.996;2022-08-19T05:22:25;100821.47;;;17.96;100.00
2673;BME280;1346;51.558;6.996;2022-08-19T05:25:05;100814.41;;;18.01;100.00
2673;BME280;1346;51.558;6.996;2022-08-19T05:27:32;100826.75;;;18.10;100.00
2673;BME280;1346;51.558;6.996;2022-08-19T05:30:01;100821.84;;;18.21;100.00
2673;BME280;1346;51.558;6.996;2022-08-19T05:32:28;100826.69;;;18.32;100.00
2673;BME280;1346;51.558;6.996;2022-08-19T05:34:55;100826.34;;;18.41;100.00
2673;BME280;1346;51.558;6.996;2022-08-19T05:37:22;100828.72;;;18.51;100.00
2673;BME280;1346;51.558;6.996;2022-08-19T05:39:52;100829.19;;;18.61;100.00
2673;BME280;1346;51.558;6.996;2022-08-19T05:42:20;100827.97;;;18.70;100.00
2673;BME280;1346;51.558;6.996;2022-08-19T05:44:47;100834.88;;;18.79;100.00
2673;BME280;1346;51.558;6.996;2022-08-19T05:47:16;100821.16;;;18.87;100.00
2673;BME280;1346;51.558;6.996;2022-08-19T05:49:45;100825.75;;;18.93;100.00
2673;BME280;1346;51.558;6.996;2022-08-19T05:52:14;100826.19;;;18.96;100.00
2673;BME280;1346;51.558;6.996;2022-08-19T05:54:42;100832.25;;;18.98;100.00
2673;BME280;1346;51.558;6.996;2022-08-19T05:57:13;100833.06;;;18.99;100.00
2673;BME280;1346;51.558;6.996;2022-08-19T05:59:40;100835.78;;;18.99;100.00
2673;BME280;1346;51.558;6.996;2022-08-19T06:02:08;100834.13;;;18.98;100.00
2673;BME280;1346;51.558;6.996;2022-08-19T06:04:37;100834.13;;;18.98;100.00
2673;BME280;1346;51.558;6.996;2022-08-19T06:07:05;100835.78;;;18.99;100.00
2673;BME280;1346;51.558;6.996;2022-08-19T06:09:31;100836.44;;;19.01;100.00
2673;BME280;1346;51.558;6.996;2022-08-19T06:11:59;100822.25;;;19.05;100.00
2673;BME280;1346;51.558;6.996;2022-08-19T06:14:31;100824.13;;;19.11;100.00
2673;BME280;1346;51.558;6.996;2022-08-19T06:17:00;100821.22;;;19.19;100.00
2673;BME280;1346;51.558;6.996;2022-08-19T06:19:29;100826.66;;;19.26;100.00
2673;BME280;1346;51.558;6.996;2022-08-19T06:21:59;100819.59;;;19.32;100.00
2673;BME280;1346;51.558;6.996;2022-08-19T06:24:28;100814.81;;;19.40;100.00
2673;BME280;1346;51.558;6.996;2022-08-19T06:26:57;100821.50;;;19.44;100.00
2673;BME280;1346;51.558;6.996;2022-08-19T06:29:26;100825.47;;;19.48;100.00
2673;BME280;1346;51.558;6.996;2022-08-19T06:31:56;100827.78;;;19.51;100.00
2673;BME280;1346;51.558;6.996;2022-08-19T06:34:23;100830.09;;;19.54;100.00
2673;BME280;1346;51.558;6.996;2022-08-19T06:36:52;100825.06;;;19.58;100.00
2673;BME280;1346;51.558;6.996;2022-08-19T06:39:23;100823.00;;;19.60;100.00
2673;BME280;1346;51.558;6.996;2022-08-19T06:41:53;100827.78;;;19.64;100.00
2673;BME280;1346;51.558;6.996;2022-08-19T06:44:23;100817.13;;;19.69;100.00
2673;BME280;1346;51.558;6.996;2022-08-19T06:46:52;100820.69;;;19.76;100.00
2673;BME280;1346;51.558;6.996;2022-08-19T06:49:19;100816.09;;;19.83;100.00
2673;BME280;1346;51.558;6.996;2022-08-19T06:51:48;100814.22;;;19.90;100.00
2673;BME280;1346;51.558;6.996;2022-08-19T06:54:17;100812.09;;;19.99;100.00
2673;BME280;1346;51.558;6.996;2022-08-19T06:56:46;100819.81;;;20.08;100.00
2673;BME280;1346;51.558;6.996;2022-08-19T06:59:18;100831.13;;;20.18;100.00
2673;BME280;1346;51.558;6.996;2022-08-19T07:01:48;100829.44;;;20.30;100.00
2673;BME280;1346;51.558;6.996;2022-08-19T07:04:18;100821.25;;;20.37;100.00
2673;BME280;1346;51.558;6.996;2022-08-19T07:06:45;100823.31;;;20.48;100.00
2673;BME280;1346;51.558;6.996;2022-08-19T07:09:15;100817.41;;;20.58;100.00
2673;BME280;1346;51.558;6.996;2022-08-19T07:11:46;100818.63;;;20.68;100.00
2673;BME280;1346;51.558;6.996;2022-08-19T07:14:14;100820.44;;;20.81;100.00
2673;BME280;1346;51.558;6.996;2022-08-19T07:16:44;100820.81;;;20.91;100.00
2673;BME280;1346;51.558;6.996;2022-08-19T07:19:12;100814.72;;;21.02;100.00
2673;BME280;1346;51.558;6.996;2022-08-19T07:21:39;100827.66;;;21.13;100.00
2673;BME280;1346;51.558;6.996;2022-08-19T07:24:06;100826.97;;;21.24;100.00
2673;BME280;1346;51.558;6.996;2022-08-19T07:26:39;100831.47;;;21.36;100.00
2673;BME280;1346;51.558;6.996;2022-08-19T07:29:08;100837.31;;;21.46;100.00
2673;BME280;1346;51.558;6.996;2022-08-19T07:31:35;100839.75;;;21.54;100.00
2673;BME280;1346;51.558;6.996;2022-08-19T07:34:04;100834.25;;;21.61;100.00
2673;BME280;1346;51.558;6.996;2022-08-19T07:36:35;100850.38;;;21.63;100.00
2673;BME280;1346;51.558;6.996;2022-08-19T07:39:07;100841.97;;;21.64;100.00
2673;BME280;1346;51.558;6.996;2022-08-19T07:41:35;100856.22;;;21.66;100.00
2673;BME280;1346;51.558;6.996;2022-08-19T07:44:04;100860.84;;;21.66;100.00
2673;BME280;1346;51.558;6.996;2022-08-19T07:46:37;100866.69;;;21.69;100.00
2673;BME280;1346;51.558;6.996;2022-08-19T07:49:06;100865.81;;;21.75;100.00
2673;BME280;1346;51.558;6.996;2022-08-19T07:51:34;100864.50;;;21.84;100.00
2673;BME280;1346;51.558;6.996;2022-08-19T07:54:01;100869.69;;;21.92;100.00
2673;BME280;1346;51.558;6.996;2022-08-19T07:56:28;100868.19;;;21.96;100.00
2673;BME280;1346;51.558;6.996;2022-08-19T07:58:55;100874.41;;;22.03;100.00
2673;BME280;1346;51.558;6.996;2022-08-19T08:01:25;100872.84;;;22.14;100.00
2673;BME280;1346;51.558;6.996;2022-08-19T08:03:56;100879.88;;;22.28;100.00
2673;BME280;1346;51.558;6.996;2022-08-19T08:06:41;100883.47;;;22.46;100.00
2673;BME280;1346;51.558;6.996;2022-08-19T08:09:29;100882.03;;;22.62;100.00
2673;BME280;1346;51.558;6.996;2022-08-19T08:12:00;100887.75;;;22.79;100.00
2673;BME280;1346;51.558;6.996;2022-08-19T08:14:32;100895.19;;;22.90;100.00
2673;BME280;1346;51.558;6.996;2022-08-19T08:17:02;100885.69;;;22.92;100.00
2673;BME280;1346;51.558;6.996;2022-08-19T08:19:30;100899.41;;;23.04;100.00
2673;BME280;1346;51.558;6.996;2022-08-19T08:22:00;100887.84;;;23.20;100.00
2673;BME280;1346;51.558;6.996;2022-08-19T08:24:30;100892.72;;;23.36;100.00
2673;BME280;1346;51.558;6.996;2022-08-19T08:26:59;100896.69;;;23.51;100.00
2673;BME280;1346;51.558;6.996;2022-08-19T08:29:30;100899.66;;;23.50;100.00
2673;BME280;1346;51.558;6.996;2022-08-19T08:31:57;100898.84;;;23.49;100.00
2673;BME280;1346;51.558;6.996;2022-08-19T08:34:24;100900.41;;;23.57;100.00
2673;BME280;1346;51.558;6.996;2022-08-19T08:36:52;100900.31;;;23.63;100.00
2673;BME280;1346;51.558;6.996;2022-08-19T08:39:20;100906.41;;;23.77;100.00
2673;BME280;1346;51.558;6.996;2022-08-19T08:41:55;100900.34;;;23.86;100.00
2673;BME280;1346;51.558;6.996;2022-08-19T08:44:28;100908.69;;;23.91;100.00
2673;BME280;1346;51.558;6.996;2022-08-19T08:47:02;100903.09;;;23.86;100.00
2673;BME280;1346;51.558;6.996;2022-08-19T08:49:46;100901.31;;;23.80;100.00
2673;BME280;1346;51.558;6.996;2022-08-19T08:52:22;100908.78;;;23.73;100.00
2673;BME280;1346;51.558;6.996;2022-08-19T08:54:54;100910.06;;;23.71;100.00
2673;BME280;1346;51.558;6.996;2022-08-19T08:57:27;100904.00;;;23.69;100.00
2673;BME280;1346;51.558;6.996;2022-08-19T08:59:57;100900.34;;;23.75;100.00
2673;BME280;1346;51.558;6.996;2022-08-19T09:02:28;100915.56;;;23.82;100.00
2673;BME280;1346;51.558;6.996;2022-08-19T09:04:55;100903.13;;;23.98;100.00
2673;BME280;1346;51.558;6.996;2022-08-19T09:07:34;100909.47;;;24.10;100.00
2673;BME280;1346;51.558;6.996;2022-08-19T09:10:17;100904.97;;;24.27;100.00
2673;BME280;1346;51.558;6.996;2022-08-19T09:12:57;100909.84;;;24.48;100.00
2673;BME280;1346;51.558;6.996;2022-08-19T09:15:31;100908.16;;;24.59;100.00
2673;BME280;1346;51.558;6.996;2022-08-19T09:18:01;100891.50;;;24.60;100.00
2673;BME280;1346;51.558;6.996;2022-08-19T09:20:30;100901.38;;;24.61;100.00
2673;BME280;1346;51.558;6.996;2022-08-19T09:22:59;100900.66;;;24.54;100.00
2673;BME280;1346;51.558;6.996;2022-08-19T09:25:26;100901.03;;;24.46;100.00
2673;BME280;1346;51.558;6.996;2022-08-19T09:27:54;100900.81;;;24.36;100.00
2673;BME280;1346;51.558;6.996;2022-08-19T09:30:25;100900.09;;;24.29;100.00
2673;BME280;1346;51.558;6.996;2022-08-19T09:32:54;100907.22;;;24.30;100.00
2673;BME280;1346;51.558;6.996;2022-08-19T09:35:24;100902.47;;;24.37;100.00
2673;BME280;1346;51.558;6.996;2022-08-19T09:37:53;100904.28;;;24.43;100.00
2673;BME280;1346;51.558;6.996;2022-08-19T09:40:21;100903.28;;;24.49;100.00
2673;BME280;1346;51.558;6.996;2022-08-19T09:42:48;100904.25;;;24.55;100.00
2673;BME280;1346;51.558;6.996;2022-08-19T09:45:17;100898.41;;;24.51;100.00
2673;BME280;1346;51.558;6.996;2022-08-19T09:47:46;100896.16;;;24.48;100.00
2673;BME280;1346;51.558;6.996;2022-08-19T09:50:13;100897.94;;;24.54;100.00
2673;BME280;1346;51.558;6.996;2022-08-19T09:52:40;100899.72;;;24.60;100.00
2673;BME280;1346;51.558;6.996;2022-08-19T09:55:10;100897.09;;;24.65;100.00
2673;BME280;1346;51.558;6.996;2022-08-19T09:57:39;100892.69;;;24.76;100.00
2673;BME280;1346;51.558;6.996;2022-08-19T10:00:08;100899.72;;;24.83;100.00
2673;BME280;1346;51.558;6.996;2022-08-19T10:02:36;100899.97;;;24.82;100.00
2673;BME280;1346;51.558;6.996;2022-08-19T10:05:04;100896.97;;;24.83;100.00
2673;BME280;1346;51.558;6.996;2022-08-19T10:07:49;100891.00;;;24.86;100.00
2673;BME280;1346;51.558;6.996;2022-08-19T10:10:17;100895.41;;;24.99;100.00
2673;BME280;1346;51.558;6.996;2022-08-19T10:12:45;100894.75;;;25.08;98.72
2673;BME280;1346;51.558;6.996;2022-08-19T10:15:13;100888.78;;;25.12;99.32
2673;BME280;1346;51.558;6.996;2022-08-19T10:17:40;100898.06;;;25.22;98.80
2673;BME280;1346;51.558;6.996;2022-08-19T10:20:09;100889.22;;;25.32;98.19
2673;BME280;1346;51.558;6.996;2022-08-19T10:22:36;100892.19;;;25.42;97.26
2673;BME280;1346;51.558;6.996;2022-08-19T10:25:05;100888.94;;;25.45;98.20
2673;BME280;1346;51.558;6.996;2022-08-19T10:27:33;100892.38;;;25.52;95.67
2673;BME280;1346;51.558;6.996;2022-08-19T10:30:01;100870.84;;;25.60;96.18
2673;BME280;1346;51.558;6.996;2022-08-19T10:32:28;100877.25;;;25.66;95.58
2673;BME280;1346;51.558;6.996;2022-08-19T10:34:56;100891.31;;;25.69;94.44
2673;BME280;1346;51.558;6.996;2022-08-19T10:37:23;100876.03;;;25.73;94.69
2673;BME280;1346;51.558;6.996;2022-08-19T10:39:50;100876.94;;;25.79;95.06
2673;BME280;1346;51.558;6.996;2022-08-19T10:42:17;100868.63;;;25.74;93.28
2673;BME280;1346;51.558;6.996;2022-08-19T10:44:45;100874.03;;;25.69;93.28
2673;BME280;1346;51.558;6.996;2022-08-19T10:47:15;100873.19;;;25.68;93.20
2673;BME280;1346;51.558;6.996;2022-08-19T10:49:42;100874.63;;;25.71;94.54
2673;BME280;1346;51.558;6.996;2022-08-19T10:52:26;100880.28;;;25.81;93.14
2673;BME280;1346;51.558;6.996;2022-08-19T10:54:59;100881.94;;;25.98;91.93
2673;BME280;1346;51.558;6.996;2022-08-19T10:57:44;100884.56;;;26.22;89.49
2673;BME280;1346;51.558;6.996;2022-08-19T11:00:12;100878.38;;;26.31;88.79
2673;BME280;1346;51.558;6.996;2022-08-19T11:02:41;100869.78;;;26.44;87.33
2673;BME280;1346;51.558;6.996;2022-08-19T11:05:09;100878.66;;;26.68;86.90
2673;BME280;1346;51.558;6.996;2022-08-19T11:07:38;100878.09;;;26.87;86.57
2673;BME280;1346;51.558;6.996;2022-08-19T11:10:06;100880.53;;;27.05;85.08
2673;BME280;1346;51.558;6.996;2022-08-19T11:12:34;100879.88;;;26.98;80.24
2673;BME280;1346;51.558;6.996;2022-08-19T11:15:05;100877.72;;;27.00;82.69
2673;BME280;1346;51.558;6.996;2022-08-19T11:17:33;100884.03;;;27.22;82.16
2673;BME280;1346;51.558;6.996;2022-08-19T11:20:03;100889.72;;;27.16;76.85
2673;BME280;1346;51.558;6.996;2022-08-19T11:22:32;100889.22;;;27.19;80.85
2673;BME280;1346;51.558;6.996;2022-08-19T11:24:59;100885.13;;;27.21;78.43
2673;BME280;1346;51.558;6.996;2022-08-19T11:27:26;100879.56;;;27.16;79.66
2673;BME280;1346;51.558;6.996;2022-08-19T11:29:54;100880.22;;;27.02;79.10
2673;BME280;1346;51.558;6.996;2022-08-19T11:32:21;100887.44;;;26.86;79.08
2673;BME280;1346;51.558;6.996;2022-08-19T11:34:48;100881.31;;;26.79;80.29
2673;BME280;1346;51.558;6.996;2022-08-19T11:37:17;100884.19;;;26.89;79.71
2673;BME280;1346;51.558;6.996;2022-08-19T11:39:44;100878.41;;;27.12;78.81
2673;BME280;1346;51.558;6.996;2022-08-19T11:42:11;100879.78;;;27.31;77.35
2673;BME280;1346;51.558;6.996;2022-08-19T11:44:55;100869.91;;;27.62;76.07
2673;BME280;1346;51.558;6.996;2022-08-19T11:47:22;100874.22;;;27.85;75.29
2673;BME280;1346;51.558;6.996;2022-08-19T11:49:49;100874.41;;;28.00;74.73
2673;BME280;1346;51.558;6.996;2022-08-19T11:52:18;100867.50;;;27.97;69.34
2673;BME280;1346;51.558;6.996;2022-08-19T11:54:45;100856.59;;;27.81;71.16
2673;BME280;1346;51.558;6.996;2022-08-19T11:57:12;100861.84;;;27.82;70.90
2673;BME280;1346;51.558;6.996;2022-08-19T11:59:42;100854.31;;;27.99;66.75
2673;BME280;1346;51.558;6.996;2022-08-19T12:02:09;100859.38;;;28.17;63.55
2673;BME280;1346;51.558;6.996;2022-08-19T12:04:36;100860.25;;;28.23;62.28
2673;BME280;1346;51.558;6.996;2022-08-19T12:07:03;100849.91;;;28.40;63.24
2673;BME280;1346;51.558;6.996;2022-08-19T12:09:31;100851.56;;;28.41;61.83
2673;BME280;1346;51.558;6.996;2022-08-19T12:12:00;100862.75;;;28.24;62.81
2673;BME280;1346;51.558;6.996;2022-08-19T12:14:27;100847.78;;;28.15;62.19
2673;BME280;1346;51.558;6.996;2022-08-19T12:16:56;100847.69;;;28.37;62.97
2673;BME280;1346;51.558;6.996;2022-08-19T12:19:23;100862.31;;;28.84;64.30
2673;BME280;1346;51.558;6.996;2022-08-19T12:21:51;100846.44;;;29.11;59.10
2673;BME280;1346;51.558;6.996;2022-08-19T12:24:21;100847.03;;;29.33;59.11
2673;BME280;1346;51.558;6.996;2022-08-19T12:26:50;100852.31;;;29.40;55.05
2673;BME280;1346;51.558;6.996;2022-08-19T12:29:17;100840.66;;;29.23;53.90
2673;BME280;1346;51.558;6.996;2022-08-19T12:31:44;100841.44;;;29.08;55.35
2673;BME280;1346;51.558;6.996;2022-08-19T12:34:11;100843.06;;;28.99;56.16
2673;BME280;1346;51.558;6.996;2022-08-19T12:36:38;100833.38;;;28.97;57.35
2673;BME280;1346;51.558;6.996;2022-08-19T12:39:05;100846.66;;;29.00;54.47
2673;BME280;1346;51.558;6.996;2022-08-19T12:41:34;100835.44;;;28.65;54.25
2673;BME280;1346;51.558;6.996;2022-08-19T12:44:02;100841.06;;;28.38;54.92
2673;BME280;1346;51.558;6.996;2022-08-19T12:46:29;100848.41;;;28.22;55.34
2673;BME280;1346;51.558;6.996;2022-08-19T12:48:57;100834.84;;;28.16;56.63
2673;BME280;1346;51.558;6.996;2022-08-19T12:51:23;100830.78;;;28.23;56.36
2673;BME280;1346;51.558;6.996;2022-08-19T12:53:50;100837.31;;;28.12;55.76
2673;BME280;1346;51.558;6.996;2022-08-19T12:56:17;100833.69;;;28.07;55.65
2673;BME280;1346;51.558;6.996;2022-08-19T12:58:45;100830.56;;;28.30;57.10
2673;BME280;1346;51.558;6.996;2022-08-19T13:01:16;100837.41;;;28.69;53.46
2673;BME280;1346;51.558;6.996;2022-08-19T13:03:45;100849.91;;;28.92;52.75
2673;BME280;1346;51.558;6.996;2022-08-19T13:06:12;100831.44;;;28.97;50.55
2673;BME280;1346;51.558;6.996;2022-08-19T13:08:40;100832.28;;;28.98;50.80
2673;BME280;1346;51.558;6.996;2022-08-19T13:11:10;100846.00;;;28.73;48.89
2673;BME280;1346;51.558;6.996;2022-08-19T13:13:39;100836.13;;;28.40;50.73